createdAt,value
2018-11-13T00:00:02.396Z,9.75
2018-11-13T00:01:02.187Z,9.83
2018-11-13T00:02:02.276Z,9.74
2018-11-13T00:03:03.008Z,9.79
2018-11-13T00:04:02.398Z,9.76
2018-11-13T00:05:02.113Z,9.72
2018-11-13T00:06:02.421Z,9.72
2018-11-13T00:07:02.208Z,9.68
2018-11-13T00:08:02.118Z,9.83
2018-11-13T00:09:02.412Z,9.83
2018-11-13T00:10:02.167Z,9.87
2018-11-13T00:11:02.275Z,9.86
2018-11-13T00:12:02.308Z,9.87
2018-11-13T00:13:02.219Z,9.8
2018-11-13T00:14:02.096Z,9.78
2018-11-13T00:15:02.373Z,9.72
2018-11-13T00:16:02.165Z,9.7
2018-11-13T00:17:02.288Z,9.71
2018-11-13T00:18:02.269Z,9.7
2018-11-13T00:19:02.153Z,9.9
2018-11-13T00:20:02.398Z,9.91
2018-11-13T00:21:02.414Z,9.79
2018-11-13T00:22:02.030Z,9.79
2018-11-13T00:23:02.182Z,9.75
2018-11-13T00:24:02.423Z,9.8
2018-11-13T00:25:02.001Z,9.76
2018-11-13T00:26:02.239Z,9.74
2018-11-13T00:27:02.140Z,9.8
2018-11-13T00:28:02.082Z,9.77
2018-11-13T00:29:02.263Z,9.87
2018-11-13T00:30:02.024Z,9.85
2018-11-13T00:31:02.141Z,9.85
2018-11-13T00:32:02.176Z,9.82
2018-11-13T00:33:02.016Z,9.86
2018-11-13T00:34:02.131Z,9.92
2018-11-13T00:35:02.061Z,9.88
2018-11-13T00:36:02.105Z,9.86
2018-11-13T00:37:02.156Z,9.85
2018-11-13T00:38:02.115Z,9.78
2018-11-13T00:39:02.429Z,9.75
2018-11-13T00:40:02.062Z,9.73
2018-11-13T00:41:02.000Z,9.89
2018-11-13T00:42:01.984Z,9.94
2018-11-13T00:43:02.170Z,9.96
2018-11-13T00:44:02.009Z,9.97
2018-11-13T00:45:02.196Z,9.94
2018-11-13T00:46:03.004Z,9.92
2018-11-13T00:47:01.992Z,9.95
2018-11-13T00:48:02.029Z,9.93
2018-11-13T00:49:03.494Z,9.91
2018-11-13T00:50:02.288Z,9.92
2018-11-13T00:51:02.206Z,9.93
2018-11-13T00:52:02.302Z,9.9
2018-11-13T00:53:02.532Z,9.88
2018-11-13T00:54:02.097Z,9.83
2018-11-13T00:55:05.633Z,9.85
2018-11-13T00:56:02.139Z,9.87
2018-11-13T00:57:02.254Z,9.82
2018-11-13T00:58:02.052Z,9.84
2018-11-13T00:59:02.063Z,9.83
2018-11-13T01:00:02.398Z,9.78
2018-11-13T01:01:02.383Z,9.84
2018-11-13T01:02:02.596Z,9.77
2018-11-13T01:03:02.108Z,9.85
2018-11-13T01:04:02.103Z,9.79
2018-11-13T01:05:03.104Z,9.87
2018-11-13T01:06:02.111Z,9.89
2018-11-13T01:07:01.998Z,9.94
2018-11-13T01:08:02.232Z,9.88
2018-11-13T01:09:01.985Z,9.82
2018-11-13T01:10:02.100Z,9.84
2018-11-13T01:11:01.970Z,9.74
2018-11-13T01:12:02.242Z,9.77
2018-11-13T01:13:02.106Z,9.79
2018-11-13T01:14:02.023Z,9.76
2018-11-13T01:15:02.584Z,9.89
2018-11-13T01:16:01.970Z,9.91
2018-11-13T01:17:02.291Z,9.92
2018-11-13T01:18:02.580Z,9.87
2018-11-13T01:19:02.918Z,9.79
2018-11-13T01:20:02.131Z,9.85
2018-11-13T01:21:02.304Z,9.92
2018-11-13T01:22:02.017Z,9.83
2018-11-13T01:23:02.233Z,9.77
2018-11-13T01:24:04.208Z,9.76
2018-11-13T01:25:02.243Z,9.73
2018-11-13T01:26:02.456Z,9.74
2018-11-13T01:27:02.415Z,9.78
2018-11-13T01:28:01.963Z,9.76
2018-11-13T01:29:02.171Z,9.77
2018-11-13T01:30:02.761Z,9.75
2018-11-13T01:31:02.086Z,9.85
2018-11-13T01:32:02.016Z,9.89
2018-11-13T01:33:02.112Z,9.91
2018-11-13T01:34:02.445Z,9.96
2018-11-13T01:35:02.747Z,9.94
2018-11-13T01:36:02.000Z,9.87
2018-11-13T01:37:01.953Z,9.82
2018-11-13T01:38:02.328Z,9.83
2018-11-13T01:39:02.055Z,9.81
2018-11-13T01:40:02.033Z,9.86
2018-11-13T01:41:02.268Z,9.87
2018-11-13T01:42:01.900Z,9.86
2018-11-13T01:43:02.156Z,9.85
2018-11-13T01:44:02.165Z,9.89
2018-11-13T01:45:01.899Z,9.95
2018-11-13T01:46:02.281Z,9.85
2018-11-13T01:47:02.134Z,9.86
2018-11-13T01:48:02.771Z,9.9
2018-11-13T01:49:01.956Z,9.85
2018-11-13T01:50:01.893Z,9.81
2018-11-13T01:51:02.213Z,9.88
2018-11-13T01:52:02.083Z,9.83
2018-11-13T01:53:02.135Z,9.81
2018-11-13T01:54:02.280Z,9.85
2018-11-13T01:55:02.427Z,9.94
2018-11-13T01:56:01.880Z,9.92
2018-11-13T01:57:02.360Z,10.01
2018-11-13T01:58:01.935Z,10.05
2018-11-13T01:59:01.892Z,10.02
2018-11-13T02:00:01.882Z,9.99
2018-11-13T02:01:01.942Z,9.91
2018-11-13T02:02:01.924Z,9.87
2018-11-13T02:03:01.888Z,10
2018-11-13T02:04:02.191Z,10.01
2018-11-13T02:05:01.843Z,10.05
2018-11-13T02:06:01.903Z,10
2018-11-13T02:07:01.947Z,9.95
2018-11-13T02:08:01.894Z,9.96
2018-11-13T02:09:01.862Z,9.86
2018-11-13T02:10:01.901Z,9.91
2018-11-13T02:11:01.909Z,9.94
2018-11-13T02:12:01.879Z,9.94
2018-11-13T02:13:01.903Z,9.95
2018-11-13T02:14:01.860Z,10
2018-11-13T02:15:01.873Z,10
2018-11-13T02:16:01.855Z,9.97
2018-11-13T02:17:01.865Z,9.97
2018-11-13T02:18:02.316Z,9.95
2018-11-13T02:19:01.937Z,9.9
2018-11-13T02:20:02.206Z,9.9
2018-11-13T02:21:02.112Z,9.97
2018-11-13T02:22:01.834Z,9.96
2018-11-13T02:23:02.129Z,9.99
2018-11-13T02:24:01.938Z,9.94
2018-11-13T02:25:01.887Z,10.01
2018-11-13T02:26:02.079Z,10.07
2018-11-13T02:27:02.073Z,9.98
2018-11-13T02:28:02.159Z,9.96
2018-11-13T02:29:02.363Z,9.9
2018-11-13T02:30:01.960Z,9.89
2018-11-13T02:31:01.843Z,9.88
2018-11-13T02:32:01.876Z,9.84
2018-11-13T02:33:02.115Z,9.89
2018-11-13T02:34:02.195Z,9.91
2018-11-13T02:35:02.251Z,9.99
2018-11-13T02:36:01.937Z,9.97
2018-11-13T02:37:01.899Z,9.91
2018-11-13T02:38:01.869Z,9.9
2018-11-13T02:39:01.838Z,9.85
2018-11-13T02:40:02.377Z,9.87
2018-11-13T02:41:02.035Z,9.93
2018-11-13T02:42:01.976Z,9.93
2018-11-13T02:43:02.292Z,9.88
2018-11-13T02:44:01.922Z,9.85
2018-11-13T02:45:02.169Z,9.83
2018-11-13T02:46:01.908Z,9.81
2018-11-13T02:47:01.947Z,9.85
2018-11-13T02:48:02.039Z,9.84
2018-11-13T02:49:01.941Z,9.91
2018-11-13T02:50:01.925Z,9.88
2018-11-13T02:51:01.839Z,9.95
2018-11-13T02:52:02.244Z,9.94
2018-11-13T02:53:01.843Z,9.93
2018-11-13T02:54:01.844Z,9.94
2018-11-13T02:55:02.160Z,9.96
2018-11-13T02:56:01.827Z,9.95
2018-11-13T02:57:01.814Z,9.93
2018-11-13T02:58:02.195Z,9.96
2018-11-13T02:59:01.927Z,9.96
2018-11-13T03:00:01.939Z,9.92
2018-11-13T03:01:01.774Z,9.95
2018-11-13T03:02:01.899Z,9.94
2018-11-13T03:03:01.810Z,9.92
2018-11-13T03:04:01.879Z,10.01
2018-11-13T03:05:02.138Z,10.04
2018-11-13T03:06:02.322Z,10.04
2018-11-13T03:07:01.835Z,10.07
2018-11-13T03:08:02.040Z,10.09
2018-11-13T03:09:02.058Z,10.1
2018-11-13T03:10:01.927Z,10.1
2018-11-13T03:11:01.923Z,10.12
2018-11-13T03:12:02.170Z,10.07
2018-11-13T03:13:01.855Z,10.03
2018-11-13T03:14:01.803Z,10
2018-11-13T03:15:01.915Z,9.97
2018-11-13T03:16:01.840Z,9.96
2018-11-13T03:17:01.940Z,9.96
2018-11-13T03:18:01.995Z,9.96
2018-11-13T03:19:01.881Z,9.91
2018-11-13T03:20:01.811Z,9.93
2018-11-13T03:21:02.054Z,9.9
2018-11-13T03:22:02.273Z,9.97
2018-11-13T03:23:01.792Z,9.99
2018-11-13T03:24:01.766Z,9.99
2018-11-13T03:25:01.941Z,9.99
2018-11-13T03:26:01.797Z,10.01
2018-11-13T03:27:01.976Z,9.96
2018-11-13T03:28:01.915Z,9.93
2018-11-13T03:29:01.798Z,9.97
2018-11-13T03:30:01.809Z,10.02
2018-11-13T03:31:02.168Z,10.02
2018-11-13T03:32:01.802Z,9.99
2018-11-13T03:33:01.950Z,10.03
2018-11-13T03:34:01.835Z,10.01
2018-11-13T03:35:01.767Z,9.99
2018-11-13T03:36:01.798Z,10.04
2018-11-13T03:37:01.727Z,9.99
2018-11-13T03:38:01.829Z,9.98
2018-11-13T03:39:01.745Z,10.01
2018-11-13T03:40:01.731Z,10.07
2018-11-13T03:41:01.752Z,10.09
2018-11-13T03:42:01.791Z,10.13
2018-11-13T03:43:01.753Z,10.1
2018-11-13T03:44:01.762Z,10.06
2018-11-13T03:45:01.870Z,10.02
2018-11-13T03:46:01.772Z,10.12
2018-11-13T03:47:01.804Z,10.05
2018-11-13T03:48:01.754Z,10.1
2018-11-13T03:49:02.115Z,10.05
2018-11-13T03:50:01.895Z,10.04
2018-11-13T03:51:02.078Z,10.04
2018-11-13T03:52:02.441Z,10.09
2018-11-13T03:53:02.576Z,10.01
2018-11-13T03:54:01.855Z,9.98
2018-11-13T03:55:01.872Z,10.01
2018-11-13T03:56:01.881Z,10.01
2018-11-13T03:57:01.738Z,10.14
2018-11-13T03:58:01.761Z,10.07
2018-11-13T03:59:01.823Z,10.06
2018-11-13T04:00:02.145Z,10.02
2018-11-13T04:01:01.902Z,10.09
2018-11-13T04:02:01.732Z,10.04
2018-11-13T04:03:01.814Z,10.05
2018-11-13T04:04:01.781Z,10.03
2018-11-13T04:05:01.890Z,10.1
2018-11-13T04:06:01.796Z,10.16
2018-11-13T04:07:01.837Z,10.2
2018-11-13T04:08:02.576Z,10.17
2018-11-13T04:09:01.871Z,10.22
2018-11-13T04:10:01.792Z,10.17
2018-11-13T04:11:01.898Z,10.17
2018-11-13T04:12:01.704Z,10.16
2018-11-13T04:13:01.783Z,10.13
2018-11-13T04:14:01.741Z,10.11
2018-11-13T04:15:01.728Z,10.09
2018-11-13T04:16:01.725Z,10.15
2018-11-13T04:17:01.759Z,10.18
2018-11-13T04:18:01.854Z,10.22
2018-11-13T04:19:01.868Z,10.23
2018-11-13T04:20:01.726Z,10.2
2018-11-13T04:21:01.761Z,10.16
2018-11-13T04:22:01.987Z,10.16
2018-11-13T04:23:01.790Z,10.12
2018-11-13T04:24:01.749Z,10.18
2018-11-13T04:25:02.571Z,10.16
2018-11-13T04:26:02.002Z,10.15
2018-11-13T04:27:01.925Z,10.13
2018-11-13T04:28:01.768Z,10.14
2018-11-13T04:29:01.719Z,10.16
2018-11-13T04:30:01.780Z,10.16
2018-11-13T04:31:01.767Z,10.15
2018-11-13T04:32:01.745Z,10.15
2018-11-13T04:33:01.790Z,10.16
2018-11-13T04:34:02.165Z,10.14
2018-11-13T04:35:01.849Z,10.14
2018-11-13T04:36:01.800Z,10.13
2018-11-13T04:37:01.769Z,10.17
2018-11-13T04:38:01.785Z,10.13
2018-11-13T04:39:01.746Z,10.12
2018-11-13T04:40:02.130Z,10.16
2018-11-13T04:41:01.812Z,10.12
2018-11-13T04:42:01.929Z,10.18
2018-11-13T04:43:01.752Z,10.2
2018-11-13T04:44:01.777Z,10.13
2018-11-13T04:45:01.822Z,10.16
2018-11-13T04:46:01.755Z,10.14
2018-11-13T04:47:01.935Z,10.15
2018-11-13T04:48:01.781Z,10.13
2018-11-13T04:49:01.774Z,10.14
2018-11-13T04:50:01.868Z,10.14
2018-11-13T04:51:01.726Z,10.11
2018-11-13T04:52:01.819Z,10.12
2018-11-13T04:53:01.913Z,10.13
2018-11-13T04:54:01.911Z,10.16
2018-11-13T04:55:02.004Z,10.17
2018-11-13T04:56:01.833Z,10.18
2018-11-13T04:57:01.813Z,10.19
2018-11-13T04:58:01.803Z,10.18
2018-11-13T04:59:01.847Z,10.13
2018-11-13T05:00:02.042Z,10.14
2018-11-13T05:01:01.675Z,10.2
2018-11-13T05:02:01.691Z,10.17
2018-11-13T05:03:02.337Z,10.18
2018-11-13T05:04:01.643Z,10.19
2018-11-13T05:05:02.071Z,10.14
2018-11-13T05:06:01.677Z,10.2
2018-11-13T05:07:01.662Z,10.19
2018-11-13T05:08:01.689Z,10.2
2018-11-13T05:09:01.606Z,10.18
2018-11-13T05:10:02.664Z,10.21
2018-11-13T05:11:01.625Z,10.2
2018-11-13T05:12:01.626Z,10.17
2018-11-13T05:13:01.669Z,10.15
2018-11-13T05:14:01.694Z,10.13
2018-11-13T05:15:01.645Z,10.15
2018-11-13T05:16:01.646Z,10.22
2018-11-13T05:17:01.661Z,10.2
2018-11-13T05:18:01.614Z,10.17
2018-11-13T05:19:01.637Z,10.2
2018-11-13T05:20:01.734Z,10.2
2018-11-13T05:21:01.653Z,10.21
2018-11-13T05:22:01.695Z,10.22
2018-11-13T05:23:02.119Z,10.22
2018-11-13T05:24:01.602Z,10.22
2018-11-13T05:25:01.738Z,10.2
2018-11-13T05:26:02.457Z,10.19
2018-11-13T05:27:01.639Z,10.16
2018-11-13T05:28:01.704Z,10.18
2018-11-13T05:29:01.916Z,10.18
2018-11-13T05:30:01.818Z,10.21
2018-11-13T05:31:01.679Z,10.2
2018-11-13T05:32:01.711Z,10.19
2018-11-13T05:33:01.840Z,10.22
2018-11-13T05:34:01.656Z,10.24
2018-11-13T05:35:01.808Z,10.23
2018-11-13T05:36:01.724Z,10.23
2018-11-13T05:37:01.637Z,10.23
2018-11-13T05:38:01.776Z,10.27
2018-11-13T05:39:01.659Z,10.27
2018-11-13T05:40:01.885Z,10.26
2018-11-13T05:41:01.775Z,10.25
2018-11-13T05:42:01.640Z,10.23
2018-11-13T05:43:01.604Z,10.23
2018-11-13T05:44:01.695Z,10.25
2018-11-13T05:45:01.821Z,10.29
2018-11-13T05:46:01.572Z,10.29
2018-11-13T05:47:02.018Z,10.27
2018-11-13T05:48:01.660Z,10.28
2018-11-13T05:49:01.852Z,10.24
2018-11-13T05:50:01.742Z,10.23
2018-11-13T05:51:01.663Z,10.25
2018-11-13T05:52:01.610Z,10.26
2018-11-13T05:53:01.645Z,10.27
2018-11-13T05:54:01.536Z,10.28
2018-11-13T05:55:01.599Z,10.27
2018-11-13T05:56:01.615Z,10.3
2018-11-13T05:57:01.812Z,10.31
2018-11-13T05:58:01.669Z,10.31
2018-11-13T05:59:01.786Z,10.31
2018-11-13T06:00:02.037Z,10.32
2018-11-13T06:01:01.650Z,10.33
2018-11-13T06:02:01.935Z,10.34
2018-11-13T06:03:01.597Z,10.33
2018-11-13T06:04:01.548Z,10.33
2018-11-13T06:05:01.790Z,10.32
2018-11-13T06:06:01.603Z,10.3
2018-11-13T06:07:01.608Z,10.27
2018-11-13T06:08:01.903Z,10.32
2018-11-13T06:09:01.669Z,10.34
2018-11-13T06:10:01.565Z,10.32
2018-11-13T06:11:02.029Z,10.34
2018-11-13T06:12:01.624Z,10.34
2018-11-13T06:13:01.598Z,10.34
2018-11-13T06:14:02.376Z,10.32
2018-11-13T06:15:01.611Z,10.3
2018-11-13T06:16:01.593Z,10.32
2018-11-13T06:17:01.853Z,10.33
2018-11-13T06:18:02.056Z,10.31
2018-11-13T06:19:01.596Z,10.31
2018-11-13T06:20:01.777Z,10.32
2018-11-13T06:21:01.590Z,10.35
2018-11-13T06:22:01.805Z,10.32
2018-11-13T06:23:02.754Z,10.29
2018-11-13T06:24:01.645Z,10.28
2018-11-13T06:25:01.726Z,10.3
2018-11-13T06:26:01.842Z,10.29
2018-11-13T06:27:01.525Z,10.27
2018-11-13T06:28:01.886Z,10.27
2018-11-13T06:29:01.593Z,10.32
2018-11-13T06:30:01.601Z,10.29
2018-11-13T06:31:01.738Z,10.27
2018-11-13T06:32:01.616Z,10.27
2018-11-13T06:33:01.652Z,10.3
2018-11-13T06:34:01.530Z,10.29
2018-11-13T06:35:01.551Z,10.26
2018-11-13T06:36:02.186Z,10.24
2018-11-13T06:37:01.548Z,10.22
2018-11-13T06:38:01.778Z,10.23
2018-11-13T06:39:01.811Z,10.26
2018-11-13T06:40:01.521Z,10.25
2018-11-13T06:41:01.527Z,10.22
2018-11-13T06:42:01.528Z,10.22
2018-11-13T06:43:01.989Z,10.19
2018-11-13T06:44:01.484Z,10.21
2018-11-13T06:45:01.618Z,10.2
2018-11-13T06:46:01.698Z,10.2
2018-11-13T06:47:01.506Z,10.19
2018-11-13T06:48:01.544Z,10.2
2018-11-13T06:49:02.090Z,10.2
2018-11-13T06:50:01.502Z,10.2
2018-11-13T06:51:01.514Z,10.17
2018-11-13T06:52:01.799Z,10.22
2018-11-13T06:53:01.484Z,10.18
2018-11-13T06:54:01.491Z,10.18
2018-11-13T06:55:01.511Z,10.21
2018-11-13T06:56:01.477Z,10.21
2018-11-13T06:57:01.721Z,10.24
2018-11-13T06:58:01.476Z,10.26
2018-11-13T06:59:01.467Z,10.26
2018-11-13T07:00:01.698Z,10.24
2018-11-13T07:01:01.768Z,10.21
2018-11-13T07:02:01.513Z,10.2
2018-11-13T07:03:01.560Z,10.18
2018-11-13T07:04:01.496Z,10.17
2018-11-13T07:05:02.378Z,10.18
2018-11-13T07:06:01.504Z,10.17
2018-11-13T07:07:02.095Z,10.2
2018-11-13T07:08:01.595Z,10.19
2018-11-13T07:09:01.496Z,10.17
2018-11-13T07:10:01.528Z,10.2
2018-11-13T07:11:01.877Z,10.23
2018-11-13T07:12:01.682Z,10.22
2018-11-13T07:13:01.601Z,10.19
2018-11-13T07:14:01.634Z,10.18
2018-11-13T07:15:01.638Z,10.17
2018-11-13T07:16:01.679Z,10.17
2018-11-13T07:17:01.468Z,10.17
2018-11-13T07:18:01.918Z,10.19
2018-11-13T07:19:01.454Z,10.17
2018-11-13T07:20:01.500Z,10.16
2018-11-13T07:21:01.580Z,10.18
2018-11-13T07:22:01.511Z,10.19
2018-11-13T07:23:01.531Z,10.17
2018-11-13T07:24:01.630Z,10.23
2018-11-13T07:25:01.818Z,10.19
2018-11-13T07:26:01.487Z,10.19
2018-11-13T07:27:02.036Z,10.19
2018-11-13T07:28:02.926Z,10.17
2018-11-13T07:29:01.524Z,10.17
2018-11-13T07:30:01.665Z,10.16
2018-11-13T07:31:01.692Z,10.15
2018-11-13T07:32:01.662Z,10.17
2018-11-13T07:33:01.640Z,10.21
2018-11-13T07:34:01.609Z,10.18
2018-11-13T07:35:01.823Z,10.13
2018-11-13T07:36:01.684Z,10.13
2018-11-13T07:37:01.477Z,10.1
2018-11-13T07:38:01.631Z,10.08
2018-11-13T07:39:01.515Z,10.07
2018-11-13T07:40:01.481Z,10.09
2018-11-13T07:41:02.247Z,10.07
2018-11-13T07:42:01.575Z,10.1
2018-11-13T07:43:01.473Z,10.09
2018-11-13T07:44:01.889Z,10.07
2018-11-13T07:45:01.757Z,10.08
2018-11-13T07:46:01.472Z,10.05
2018-11-13T07:47:02.439Z,10.02
2018-11-13T07:48:02.156Z,10.02
2018-11-13T07:49:01.482Z,10.02
2018-11-13T07:50:01.596Z,10.01
2018-11-13T07:51:01.735Z,9.96
2018-11-13T07:52:01.526Z,9.96
2018-11-13T07:53:01.633Z,9.97
2018-11-13T07:54:02.403Z,9.98
2018-11-13T07:55:01.642Z,9.93
2018-11-13T07:56:01.511Z,9.9
2018-11-13T07:57:01.584Z,9.9
2018-11-13T07:58:01.475Z,9.93
2018-11-13T07:59:01.452Z,9.92
2018-11-13T08:00:01.760Z,9.91
2018-11-13T08:01:01.580Z,9.88
2018-11-13T08:02:01.433Z,9.89
2018-11-13T08:03:01.387Z,9.91
2018-11-13T08:04:01.451Z,9.94
2018-11-13T08:05:01.727Z,9.92
2018-11-13T08:06:01.897Z,9.91
2018-11-13T08:07:01.515Z,9.94
2018-11-13T08:08:01.469Z,9.96
2018-11-13T08:09:01.503Z,9.95
2018-11-13T08:10:01.345Z,9.97
2018-11-13T08:11:01.463Z,10
2018-11-13T08:12:02.885Z,9.98
2018-11-13T08:13:02.698Z,9.98
2018-11-13T08:14:01.514Z,9.97
2018-11-13T08:15:01.441Z,9.97
2018-11-13T08:16:01.583Z,9.95
2018-11-13T08:17:01.430Z,10
2018-11-13T08:18:01.406Z,9.93
2018-11-13T08:19:01.420Z,9.94
2018-11-13T08:20:01.384Z,9.89
2018-11-13T08:21:01.649Z,9.88
2018-11-13T08:22:02.150Z,9.83
2018-11-13T08:23:01.447Z,9.87
2018-11-13T08:24:01.333Z,9.92
2018-11-13T08:25:01.517Z,9.95
2018-11-13T08:26:01.339Z,9.94
2018-11-13T08:27:02.163Z,9.87
2018-11-13T08:28:01.777Z,9.85
2018-11-13T08:29:03.224Z,9.8
2018-11-13T08:30:01.341Z,9.81
2018-11-13T08:31:01.372Z,9.86
2018-11-13T08:32:01.427Z,9.82
2018-11-13T08:33:01.401Z,9.79
2018-11-13T08:34:01.774Z,9.75
2018-11-13T08:35:02.568Z,9.78
2018-11-13T08:36:01.326Z,9.82
2018-11-13T08:37:01.381Z,9.78
2018-11-13T08:38:01.524Z,9.78
2018-11-13T08:39:01.416Z,9.77
2018-11-13T08:40:01.339Z,9.8
2018-11-13T08:41:01.345Z,9.77
2018-11-13T08:42:01.428Z,9.76
2018-11-13T08:43:01.493Z,9.77
2018-11-13T08:44:02.383Z,9.78
2018-11-13T08:45:01.358Z,9.8
2018-11-13T08:46:01.296Z,9.79
2018-11-13T08:47:01.341Z,9.73
2018-11-13T08:48:02.168Z,9.74
2018-11-13T08:49:01.474Z,9.74
2018-11-13T08:50:01.350Z,9.74
2018-11-13T08:51:01.437Z,9.68
2018-11-13T08:52:01.694Z,9.71
2018-11-13T08:53:01.376Z,9.76
2018-11-13T08:54:01.332Z,9.73
2018-11-13T08:55:01.730Z,9.72
2018-11-13T08:56:01.600Z,9.75
2018-11-13T08:57:01.299Z,9.74
2018-11-13T08:58:01.292Z,9.75
2018-11-13T08:59:02.665Z,9.76
2018-11-13T09:00:01.336Z,9.74
2018-11-13T09:01:01.383Z,9.71
2018-11-13T09:02:01.508Z,9.73
2018-11-13T09:03:01.460Z,9.72
2018-11-13T09:04:01.584Z,9.75
2018-11-13T09:05:02.304Z,9.78
2018-11-13T09:06:01.867Z,9.76
2018-11-13T09:07:01.560Z,9.75
2018-11-13T09:08:01.354Z,9.78
2018-11-13T09:09:01.449Z,9.76
2018-11-13T09:10:01.280Z,9.79
2018-11-13T09:11:01.523Z,9.78
2018-11-13T09:12:03.771Z,9.76
2018-11-13T09:13:01.570Z,9.74
2018-11-13T09:14:01.307Z,9.73
2018-11-13T09:15:01.290Z,9.75
2018-11-13T09:16:01.590Z,9.75
2018-11-13T09:17:01.568Z,9.78
2018-11-13T09:18:02.122Z,9.77
2018-11-13T09:19:02.113Z,9.73
2018-11-13T09:20:01.627Z,9.79
2018-11-13T09:21:01.641Z,9.77
2018-11-13T09:22:01.490Z,9.76
2018-11-13T09:23:01.411Z,9.79
2018-11-13T09:24:01.328Z,9.8
2018-11-13T09:25:01.255Z,9.82
2018-11-13T09:26:01.315Z,9.82
2018-11-13T09:27:01.266Z,9.82
2018-11-13T09:28:01.320Z,9.81
2018-11-13T09:29:01.288Z,9.81
2018-11-13T09:30:02.577Z,9.83
2018-11-13T09:31:03.573Z,9.84
2018-11-13T09:32:01.350Z,9.84
2018-11-13T09:33:02.038Z,9.88
2018-11-13T09:34:01.432Z,9.82
2018-11-13T09:35:01.613Z,9.81
2018-11-13T09:36:01.396Z,9.81
2018-11-13T09:37:01.574Z,9.79
2018-11-13T09:38:01.338Z,9.84
2018-11-13T09:39:01.291Z,9.84
2018-11-13T09:40:01.596Z,9.84
2018-11-13T09:41:01.328Z,9.86
2018-11-13T09:42:01.512Z,9.83
2018-11-13T09:43:01.354Z,9.77
2018-11-13T09:44:01.558Z,9.81
2018-11-13T09:45:02.509Z,9.83
2018-11-13T09:46:02.214Z,9.78
2018-11-13T09:47:01.253Z,9.8
2018-11-13T09:48:01.307Z,9.79
2018-11-13T09:49:01.291Z,9.81
2018-11-13T09:50:01.344Z,9.77
2018-11-13T09:51:01.333Z,9.79
2018-11-13T09:52:01.248Z,9.82
2018-11-13T09:53:01.243Z,9.78
2018-11-13T09:54:01.269Z,9.81
2018-11-13T09:55:01.297Z,9.8
2018-11-13T09:56:01.324Z,9.8
2018-11-13T09:57:01.409Z,9.79
2018-11-13T09:58:01.260Z,9.76
2018-11-13T09:59:01.945Z,9.78
2018-11-13T10:00:02.236Z,9.8
2018-11-13T10:01:04.030Z,9.82
2018-11-13T10:02:05.744Z,9.8
2018-11-13T10:03:08.040Z,9.78
2018-11-13T10:04:07.051Z,9.77
2018-11-13T10:05:08.345Z,9.76
2018-11-13T10:06:02.214Z,9.76
2018-11-13T10:07:01.657Z,9.78
2018-11-13T10:08:01.552Z,9.78
2018-11-13T10:09:01.254Z,9.78
2018-11-13T10:10:01.619Z,9.81
2018-11-13T10:11:01.417Z,9.78
2018-11-13T10:12:01.304Z,9.77
2018-11-13T10:13:01.571Z,9.78
2018-11-13T10:14:01.644Z,9.81
2018-11-13T10:15:01.382Z,9.81
2018-11-13T10:16:01.251Z,9.84
2018-11-13T10:17:01.498Z,9.8
2018-11-13T10:18:02.937Z,9.81
2018-11-13T10:19:01.487Z,9.81
2018-11-13T10:20:01.210Z,9.81
2018-11-13T10:21:01.236Z,9.81
2018-11-13T10:22:01.329Z,9.82
2018-11-13T10:23:01.556Z,9.86
2018-11-13T10:24:01.328Z,9.86
2018-11-13T10:25:01.367Z,9.87
2018-11-13T10:26:01.234Z,9.84
2018-11-13T10:27:01.974Z,9.88
2018-11-13T10:28:01.851Z,9.91
2018-11-13T10:29:01.382Z,9.87
2018-11-13T10:30:02.468Z,9.86
2018-11-13T10:31:01.292Z,9.88
2018-11-13T10:32:01.201Z,9.9
2018-11-13T10:33:01.488Z,9.87
2018-11-13T10:34:01.636Z,9.89
2018-11-13T10:35:01.324Z,9.88
2018-11-13T10:36:01.282Z,9.86
2018-11-13T10:37:02.009Z,9.86
2018-11-13T10:38:01.328Z,9.81
2018-11-13T10:39:01.529Z,9.83
2018-11-13T10:40:01.848Z,9.82
2018-11-13T10:41:02.164Z,9.73
2018-11-13T10:42:01.278Z,9.72
2018-11-13T10:43:01.274Z,9.61
2018-11-13T10:44:01.271Z,9.7
2018-11-13T10:45:01.204Z,9.72
2018-11-13T10:46:01.217Z,9.66
2018-11-13T10:47:01.256Z,9.71
2018-11-13T10:48:01.296Z,9.78
2018-11-13T10:49:01.694Z,9.77
2018-11-13T10:50:01.626Z,9.7
2018-11-13T10:51:01.318Z,9.65
2018-11-13T10:52:01.340Z,9.69
2018-11-13T10:53:01.208Z,9.7
2018-11-13T10:54:01.205Z,9.68
2018-11-13T10:55:01.294Z,9.66
2018-11-13T10:56:01.266Z,9.71
2018-11-13T10:57:01.752Z,9.65
2018-11-13T10:58:01.296Z,9.6
2018-11-13T10:59:01.229Z,9.66
2018-11-13T11:00:01.291Z,9.58
2018-11-13T11:01:01.439Z,9.63
2018-11-13T11:02:01.466Z,9.61
2018-11-13T11:03:02.557Z,9.6
2018-11-13T11:04:01.427Z,9.64
2018-11-13T11:05:01.295Z,9.68
2018-11-13T11:07:01.520Z,9.68
2018-11-13T11:08:01.195Z,9.63
2018-11-13T11:09:01.165Z,9.62
2018-11-13T11:10:01.676Z,9.62
2018-11-13T11:11:01.466Z,9.66
2018-11-13T11:12:01.187Z,9.63
2018-11-13T11:13:02.870Z,9.59
2018-11-13T11:14:03.381Z,9.6
2018-11-13T11:15:01.246Z,9.58
2018-11-13T11:16:01.419Z,9.58
2018-11-13T11:17:01.235Z,9.61
2018-11-13T11:18:01.749Z,9.68
2018-11-13T11:19:02.789Z,9.67
2018-11-13T11:20:01.186Z,9.73
2018-11-13T11:21:01.198Z,9.73
2018-11-13T11:22:01.155Z,9.81
2018-11-13T11:23:01.614Z,9.82
2018-11-13T11:24:01.679Z,9.76
2018-11-13T11:25:01.511Z,9.77
2018-11-13T11:26:01.201Z,9.69
2018-11-13T11:27:01.118Z,9.65
2018-11-13T11:28:01.487Z,9.68
2018-11-13T11:29:01.190Z,9.71
2018-11-13T11:30:01.207Z,9.67
2018-11-13T11:31:01.779Z,9.64
2018-11-13T11:32:01.084Z,9.61
2018-11-13T11:33:01.188Z,9.63
2018-11-13T11:34:01.193Z,9.62
2018-11-13T11:35:01.385Z,9.66
2018-11-13T11:36:01.417Z,9.73
2018-11-13T11:37:01.165Z,9.69
2018-11-13T11:38:01.194Z,9.72
2018-11-13T11:39:03.246Z,9.77
2018-11-13T11:40:01.126Z,9.62
2018-11-13T11:41:01.188Z,9.62
2018-11-13T11:42:01.096Z,9.57
2018-11-13T11:43:01.221Z,9.52
2018-11-13T11:44:01.075Z,9.49
2018-11-13T11:45:01.575Z,9.55
2018-11-13T11:47:01.697Z,9.49
2018-11-13T11:48:01.076Z,9.54
2018-11-13T11:49:01.239Z,9.53
2018-11-13T11:50:01.253Z,9.44
2018-11-13T11:51:01.676Z,9.6
2018-11-13T11:52:01.763Z,9.55
2018-11-13T11:53:01.110Z,9.61
2018-11-13T11:54:02.458Z,9.51
2018-11-13T11:55:01.319Z,9.52
2018-11-13T11:56:01.892Z,9.52
2018-11-13T11:57:01.224Z,9.47
2018-11-13T11:58:01.482Z,9.49
2018-11-13T11:59:01.304Z,9.44
2018-11-13T12:00:01.520Z,9.49
2018-11-13T12:01:01.457Z,9.57
2018-11-13T12:02:01.373Z,9.55
2018-11-13T12:03:01.265Z,9.46
2018-11-13T12:04:01.475Z,9.51
2018-11-13T12:05:01.174Z,9.53
2018-11-13T12:06:01.094Z,9.52
2018-11-13T12:07:01.049Z,9.48
2018-11-13T12:08:01.159Z,9.53
2018-11-13T12:09:01.155Z,9.48
2018-11-13T12:10:01.422Z,9.57
2018-11-13T12:11:01.058Z,9.54
2018-11-13T12:12:01.393Z,9.51
2018-11-13T12:13:01.185Z,9.47
2018-11-13T12:14:01.443Z,9.55
2018-11-13T12:15:01.179Z,9.57
2018-11-13T12:16:01.136Z,9.55
2018-11-13T12:17:01.274Z,9.57
2018-11-13T12:18:01.045Z,9.49
2018-11-13T12:19:02.482Z,9.5
2018-11-13T12:20:01.180Z,9.59
2018-11-13T12:21:01.465Z,9.52
2018-11-13T12:22:01.262Z,9.48
2018-11-13T12:23:01.060Z,9.45
2018-11-13T12:24:01.225Z,9.46
2018-11-13T12:25:01.135Z,9.42
2018-11-13T12:26:01.329Z,9.5
2018-11-13T12:27:01.063Z,9.55
2018-11-13T12:28:01.342Z,9.55
2018-11-13T12:29:01.153Z,9.52
2018-11-13T12:30:01.107Z,9.53
2018-11-13T12:31:01.295Z,9.5
2018-11-13T12:32:01.413Z,9.5
2018-11-13T12:33:01.365Z,9.53
2018-11-13T12:34:01.314Z,9.46
2018-11-13T12:35:01.168Z,9.54
2018-11-13T12:36:01.181Z,9.54
2018-11-13T12:37:01.174Z,9.51
2018-11-13T12:38:01.312Z,9.56
2018-11-13T12:39:01.171Z,9.51
2018-11-13T12:40:01.079Z,9.49
2018-11-13T12:41:02.654Z,9.5
2018-11-13T12:42:01.573Z,9.42
2018-11-13T12:43:01.071Z,9.39
2018-11-13T12:44:01.134Z,9.38
2018-11-13T12:45:01.263Z,9.46
2018-11-13T12:46:01.431Z,9.35
2018-11-13T12:47:01.156Z,9.42
2018-11-13T12:48:01.140Z,9.44
2018-11-13T12:49:03.140Z,9.39
2018-11-13T12:50:01.554Z,9.37
2018-11-13T12:51:01.331Z,9.36
2018-11-13T12:52:01.294Z,9.43
2018-11-13T12:53:00.976Z,9.49
2018-11-13T12:54:01.125Z,9.46
2018-11-13T12:55:01.063Z,9.39
2018-11-13T12:56:01.602Z,9.43
2018-11-13T12:57:01.042Z,9.3
2018-11-13T12:58:01.015Z,9.21
2018-11-13T12:59:00.996Z,9.19
2018-11-13T13:00:01.135Z,9.18
2018-11-13T13:01:01.134Z,9.21
2018-11-13T13:02:01.431Z,9.23
2018-11-13T13:03:01.041Z,9.28
2018-11-13T13:04:01.245Z,9.24
2018-11-13T13:05:00.962Z,9.29
2018-11-13T13:06:01.105Z,9.32
2018-11-13T13:07:01.335Z,9.33
2018-11-13T13:08:01.338Z,9.21
2018-11-13T13:09:00.923Z,9.32
2018-11-13T13:10:00.999Z,9.25
2018-11-13T13:11:01.384Z,9.26
2018-11-13T13:12:01.116Z,9.25
2018-11-13T13:13:00.983Z,9.28
2018-11-13T13:14:00.970Z,9.3